createdAt,value
2023-04-20T00:00:28.784Z,9.27
2023-04-20T00:03:20.684Z,9.23
2023-04-20T00:05:51.414Z,9.23
2023-04-20T00:08:19.103Z,9.21
2023-04-20T00:10:46.798Z,9.19
2023-04-20T00:13:14.418Z,9.18
2023-04-20T00:15:41.994Z,9.17
2023-04-20T00:18:09.693Z,9.21
2023-04-20T00:20:38.044Z,9.20
2023-04-20T00:23:05.387Z,9.18
2023-04-20T00:25:32.949Z,9.15
2023-04-20T00:28:00.277Z,9.17
2023-04-20T00:30:27.751Z,9.19
2023-04-20T00:32:55.516Z,9.21
2023-04-20T00:35:23.014Z,9.26
2023-04-20T00:37:52.500Z,9.24
2023-04-20T00:40:20.222Z,9.28
2023-04-20T00:42:47.750Z,9.24
2023-04-20T00:45:16.759Z,9.27
2023-04-20T00:47:44.309Z,9.26
2023-04-20T00:50:12.057Z,9.25
2023-04-20T00:52:40.792Z,9.28
2023-04-20T00:55:09.253Z,9.29
2023-04-20T00:57:39.455Z,9.30
2023-04-20T01:00:08.409Z,9.25
2023-04-20T01:02:36.764Z,9.22
2023-04-20T01:05:05.171Z,9.20
2023-04-20T01:07:32.947Z,9.20
2023-04-20T01:10:00.857Z,9.23
2023-04-20T01:12:28.894Z,9.27
2023-04-20T01:14:56.590Z,9.30
2023-04-20T01:17:24.382Z,9.22
2023-04-20T01:19:52.253Z,9.24
2023-04-20T01:22:21.190Z,9.26
2023-04-20T01:24:49.619Z,9.28
2023-04-20T01:27:17.519Z,9.34
2023-04-20T01:29:46.578Z,9.34
2023-04-20T01:32:14.339Z,9.32
2023-04-20T01:34:41.869Z,9.35
2023-04-20T01:37:09.647Z,9.36
2023-04-20T01:39:39.732Z,9.38
2023-04-20T01:42:07.504Z,9.38
2023-04-20T01:44:35.447Z,9.39
2023-04-20T01:47:03.703Z,9.40
2023-04-20T01:49:31.677Z,9.42
2023-04-20T01:51:59.458Z,9.43
2023-04-20T01:54:27.241Z,9.43
2023-04-20T01:56:55.897Z,9.41
2023-04-20T01:59:23.728Z,9.42
2023-04-20T02:01:51.690Z,9.45
2023-04-20T02:04:21.349Z,9.45
2023-04-20T02:06:49.059Z,9.45
2023-04-20T02:09:17.004Z,9.42
2023-04-20T02:11:45.392Z,9.45
2023-04-20T02:14:13.409Z,9.44
2023-04-20T02:16:42.374Z,9.43
2023-04-20T02:19:10.427Z,9.41
2023-04-20T02:21:38.483Z,9.45
2023-04-20T02:24:06.793Z,9.47
2023-04-20T02:26:34.535Z,9.52
2023-04-20T02:29:02.516Z,9.52
2023-04-20T02:31:30.624Z,9.50
2023-04-20T02:33:58.734Z,9.47
2023-04-20T02:36:27.906Z,9.46
2023-04-20T02:38:55.848Z,9.48
2023-04-20T02:41:23.679Z,9.50
2023-04-20T02:43:51.694Z,9.44
2023-04-20T02:46:20.263Z,9.45
2023-04-20T02:48:48.699Z,9.49
2023-04-20T02:51:16.800Z,9.51
2023-04-20T02:53:46.172Z,9.52
2023-04-20T02:56:21.386Z,9.49
2023-04-20T02:58:54.515Z,9.48
2023-04-20T03:01:30.435Z,9.49
2023-04-20T03:04:06.192Z,9.52
2023-04-20T03:06:38.025Z,9.46
2023-04-20T03:09:08.616Z,9.44
2023-04-20T03:11:45.857Z,9.47
2023-04-20T03:14:19.177Z,9.44
2023-04-20T03:16:47.113Z,9.37
2023-04-20T03:19:16.243Z,9.38
2023-04-20T03:21:45.371Z,9.36
2023-04-20T03:24:13.574Z,9.36
2023-04-20T03:26:41.313Z,9.35
2023-04-20T03:29:18.424Z,9.30
2023-04-20T03:31:46.993Z,9.26
2023-04-20T03:34:15.236Z,9.30
2023-04-20T03:36:43.360Z,9.27
2023-04-20T03:39:11.570Z,9.27
2023-04-20T03:41:39.874Z,9.26
2023-04-20T03:44:07.683Z,9.25
2023-04-20T03:46:38.653Z,9.27
2023-04-20T03:49:07.088Z,9.25
2023-04-20T03:51:35.559Z,9.21
2023-04-20T03:54:03.515Z,9.23
2023-04-20T03:56:31.836Z,9.25
2023-04-20T03:59:00.333Z,9.18
2023-04-20T04:01:28.667Z,9.15
2023-04-20T04:03:57.359Z,9.19
2023-04-20T04:06:26.937Z,9.18
2023-04-20T04:08:55.229Z,9.23
2023-04-20T04:11:25.183Z,9.22
2023-04-20T04:13:53.086Z,9.20
2023-04-20T04:16:21.298Z,9.18
2023-04-20T04:18:50.099Z,9.21
2023-04-20T04:21:18.113Z,9.19
2023-04-20T04:23:50.734Z,9.17
2023-04-20T04:26:42.126Z,9.15
2023-04-20T04:29:10.111Z,9.16
2023-04-20T04:31:38.295Z,9.16
2023-04-20T04:34:13.223Z,9.10
2023-04-20T04:36:45.596Z,9.16
2023-04-20T04:39:16.142Z,9.14
2023-04-20T04:41:49.786Z,9.13
2023-04-20T04:44:28.404Z,9.11
2023-04-20T04:46:57.170Z,9.13
2023-04-20T04:49:26.976Z,9.10
2023-04-20T04:51:54.982Z,9.08
2023-04-20T04:54:22.821Z,9.11
2023-04-20T04:56:51.316Z,9.11
2023-04-20T04:59:19.638Z,9.12
2023-04-20T05:01:47.440Z,9.01
2023-04-20T05:04:15.498Z,9.06
2023-04-20T05:06:43.789Z,9.08
2023-04-20T05:09:11.912Z,9.06
2023-04-20T05:11:39.702Z,9.03
2023-04-20T05:14:07.457Z,9.07
2023-04-20T05:16:35.403Z,9.09
2023-04-20T05:19:03.682Z,9.01
2023-04-20T05:21:32.435Z,9.02
2023-04-20T05:24:00.539Z,9.05
2023-04-20T05:26:28.382Z,9.08
2023-04-20T05:28:56.320Z,9.09
2023-04-20T05:31:24.536Z,9.02
2023-04-20T05:33:52.977Z,9.06
2023-04-20T05:36:20.887Z,9.10
2023-04-20T05:38:48.468Z,9.06
2023-04-20T05:41:16.334Z,9.09
2023-04-20T05:43:44.148Z,9.09
2023-04-20T05:46:11.952Z,9.11
2023-04-20T05:48:40.486Z,9.13
2023-04-20T05:51:08.154Z,9.09
2023-04-20T05:53:35.996Z,9.12
2023-04-20T05:56:04.158Z,9.14
2023-04-20T05:58:37.133Z,9.15
2023-04-20T06:01:05.092Z,9.18
2023-04-20T06:03:33.347Z,9.17
2023-04-20T06:06:01.242Z,9.25
2023-04-20T06:08:29.209Z,9.29
2023-04-20T06:10:57.866Z,9.34
2023-04-20T06:13:25.937Z,9.33
2023-04-20T06:15:53.665Z,9.36
2023-04-20T06:18:21.756Z,9.25
2023-04-20T06:20:50.063Z,9.32
2023-04-20T06:23:17.905Z,9.27
2023-04-20T06:25:45.972Z,9.22
2023-04-20T06:28:18.758Z,9.36
2023-04-20T06:30:46.629Z,9.43
2023-04-20T06:33:16.741Z,9.40
2023-04-20T06:35:45.404Z,9.45
2023-04-20T06:38:13.880Z,9.50
2023-04-20T06:40:41.744Z,9.59
2023-04-20T06:43:09.741Z,9.60
2023-04-20T06:45:37.657Z,9.59
2023-04-20T06:48:09.938Z,9.67
2023-04-20T06:50:42.490Z,9.64
2023-04-20T06:53:10.171Z,9.70
2023-04-20T06:55:41.186Z,9.73
2023-04-20T06:58:09.308Z,9.71
2023-04-20T07:00:37.341Z,9.62
2023-04-20T07:03:05.636Z,9.56
2023-04-20T07:05:35.713Z,9.58
2023-04-20T07:08:04.139Z,9.49
2023-04-20T07:10:32.381Z,9.55
2023-04-20T07:12:59.935Z,9.56
2023-04-20T07:15:28.094Z,9.63
2023-04-20T07:17:55.938Z,9.62
2023-04-20T07:20:23.761Z,9.62
2023-04-20T07:22:51.349Z,9.63
2023-04-20T07:25:19.672Z,9.80
2023-04-20T07:27:47.978Z,10.02
2023-04-20T07:30:15.979Z,10.15
2023-04-20T07:32:44.115Z,10.35
2023-04-20T07:35:12.086Z,10.47
2023-04-20T07:37:40.725Z,10.46
2023-04-20T07:40:09.848Z,10.65
2023-04-20T07:42:37.990Z,10.64
2023-04-20T07:45:07.172Z,10.62
2023-04-20T07:47:35.907Z,10.62
2023-04-20T07:50:06.142Z,10.50
2023-04-20T07:52:33.926Z,10.63
2023-04-20T07:55:01.597Z,10.60
2023-04-20T07:57:29.346Z,10.57
2023-04-20T07:59:56.967Z,10.55
2023-04-20T08:02:25.353Z,10.53
2023-04-20T08:04:53.627Z,10.50
2023-04-20T08:07:21.373Z,10.47
2023-04-20T08:09:49.662Z,10.42
2023-04-20T08:12:17.230Z,10.55
2023-04-20T08:14:45.035Z,10.58
2023-04-20T08:17:12.766Z,10.73
2023-04-20T08:19:42.386Z,10.79
2023-04-20T08:22:12.276Z,10.99
2023-04-20T08:24:39.851Z,11.22
2023-04-20T08:27:08.979Z,11.27
2023-04-20T08:29:38.341Z,11.30
2023-04-20T08:32:08.554Z,11.30
2023-04-20T08:34:36.333Z,11.30
2023-04-20T08:37:04.252Z,11.32
2023-04-20T08:39:32.269Z,11.36
2023-04-20T08:41:59.875Z,11.48
2023-04-20T08:44:27.431Z,11.55
2023-04-20T08:46:55.081Z,11.43
2023-04-20T08:49:23.023Z,11.47
2023-04-20T08:51:51.027Z,11.33
2023-04-20T08:54:18.822Z,11.29
2023-04-20T08:56:48.033Z,11.40
2023-04-20T08:59:16.458Z,11.43
2023-04-20T09:01:44.902Z,11.16
2023-04-20T09:04:22.971Z,11.03
2023-04-20T09:06:53.652Z,11.03
2023-04-20T09:09:24.812Z,10.81
2023-04-20T09:12:03.166Z,10.85
2023-04-20T09:14:41.439Z,10.71
2023-04-20T09:17:13.625Z,10.83
2023-04-20T09:19:43.856Z,10.68
2023-04-20T09:22:11.918Z,10.66
2023-04-20T09:24:40.953Z,10.64
2023-04-20T09:27:16.701Z,10.74
2023-04-20T09:29:56.277Z,10.75
2023-04-20T09:32:25.442Z,10.83
2023-04-20T09:34:53.130Z,10.89
2023-04-20T09:37:22.298Z,10.92
2023-04-20T09:39:50.254Z,11.13
2023-04-20T09:42:18.157Z,11.28
2023-04-20T09:44:45.648Z,11.28
2023-04-20T09:47:18.497Z,11.42
2023-04-20T09:49:49.570Z,11.27
2023-04-20T09:52:18.397Z,11.44
2023-04-20T09:54:46.441Z,11.39
2023-04-20T09:57:14.787Z,11.31
2023-04-20T09:59:47.227Z,11.23
2023-04-20T10:02:15.129Z,11.41
2023-04-20T10:04:59.370Z,11.43
2023-04-20T10:07:31.250Z,11.46
2023-04-20T10:10:15.185Z,11.63
2023-04-20T10:12:59.264Z,11.67
2023-04-20T10:15:39.146Z,11.58
2023-04-20T10:18:27.148Z,11.59
2023-04-20T10:21:09.004Z,11.47
2023-04-20T10:23:48.795Z,11.43
2023-04-20T10:26:16.906Z,11.57
2023-04-20T10:28:45.286Z,11.53
2023-04-20T10:31:15.064Z,11.49
2023-04-20T10:33:55.260Z,11.59
2023-04-20T10:36:36.536Z,11.65
2023-04-20T10:39:19.911Z,11.96
2023-04-20T10:42:03.392Z,12.02
2023-04-20T10:44:30.793Z,11.77
2023-04-20T10:46:58.233Z,11.92
2023-04-20T10:49:31.235Z,11.94
2023-04-20T10:51:58.726Z,11.82
2023-04-20T10:54:26.474Z,11.72
2023-04-20T10:56:54.226Z,11.76
2023-04-20T10:59:24.438Z,11.64
2023-04-20T11:01:53.333Z,11.60
2023-04-20T11:04:34.057Z,11.46
2023-04-20T11:07:07.333Z,11.53
2023-04-20T11:09:37.707Z,11.55
2023-04-20T11:12:08.092Z,11.61
2023-04-20T11:14:50.433Z,11.61
2023-04-20T11:17:18.349Z,11.73
2023-04-20T11:19:46.434Z,11.80
2023-04-20T11:22:24.635Z,11.88
2023-04-20T11:25:05.107Z,11.94
2023-04-20T11:27:34.421Z,11.94
2023-04-20T11:30:05.247Z,12.00
2023-04-20T11:32:33.782Z,12.03
2023-04-20T11:35:10.405Z,12.10
2023-04-20T11:37:53.978Z,12.06
2023-04-20T11:40:21.566Z,12.07
2023-04-20T11:42:49.214Z,12.11
2023-04-20T11:45:17.443Z,12.07
2023-04-20T11:47:45.395Z,12.11
2023-04-20T11:50:13.990Z,12.05
2023-04-20T11:52:41.504Z,12.09
2023-04-20T11:55:10.146Z,12.07
2023-04-20T11:57:37.642Z,12.15
2023-04-20T12:00:06.741Z,12.06
2023-04-20T12:02:41.424Z,12.05
2023-04-20T12:05:09.426Z,11.88
2023-04-20T12:07:36.933Z,11.76
2023-04-20T12:10:06.752Z,11.70
2023-04-20T12:12:34.261Z,11.74
2023-04-20T12:15:01.786Z,11.60
2023-04-20T12:17:29.412Z,11.53
2023-04-20T12:19:57.445Z,11.48
2023-04-20T12:22:25.220Z,11.47
2023-04-20T12:24:52.940Z,11.38
2023-04-20T12:27:20.578Z,11.30
2023-04-20T12:29:48.067Z,11.23
2023-04-20T12:32:15.518Z,11.24
2023-04-20T12:34:43.183Z,11.26
2023-04-20T12:37:10.840Z,11.25
2023-04-20T12:39:39.332Z,11.28
2023-04-20T12:42:06.920Z,11.21
2023-04-20T12:44:34.320Z,11.17
2023-04-20T12:47:02.070Z,11.10
2023-04-20T12:49:31.436Z,11.08
2023-04-20T12:52:00.362Z,11.03
2023-04-20T12:54:28.057Z,10.93
2023-04-20T12:56:55.795Z,10.86
2023-04-20T12:59:23.477Z,10.83
2023-04-20T13:01:51.259Z,10.82
2023-04-20T13:04:19.428Z,10.78
2023-04-20T13:06:47.413Z,10.74
2023-04-20T13:09:14.950Z,10.76
2023-04-20T13:11:42.604Z,10.79
2023-04-20T13:14:10.218Z,10.93
2023-04-20T13:16:37.864Z,10.94
2023-04-20T13:19:05.301Z,10.92
2023-04-20T13:21:33.033Z,10.84
2023-04-20T13:24:00.627Z,10.82
2023-04-20T13:26:28.472Z,10.85
2023-04-20T13:28:58.021Z,10.85
2023-04-20T13:31:25.744Z,10.72
2023-04-20T13:33:54.181Z,10.65
2023-04-20T13:36:24.413Z,10.60
2023-04-20T13:38:52.997Z,10.48
2023-04-20T13:41:23.301Z,10.40
2023-04-20T13:43:51.146Z,10.28
2023-04-20T13:46:19.743Z,10.17
2023-04-20T13:48:47.427Z,10.09
2023-04-20T13:51:14.864Z,10.06
2023-04-20T13:53:42.640Z,9.92
2023-04-20T13:56:10.570Z,9.92
2023-04-20T13:58:38.735Z,9.88
2023-04-20T14:01:15.873Z,9.90
2023-04-20T14:03:44.653Z,9.87
2023-04-20T14:06:12.745Z,9.79
2023-04-20T14:08:40.496Z,9.75
2023-04-20T14:11:08.960Z,9.75
2023-04-20T14:13:38.389Z,9.78
2023-04-20T14:16:16.233Z,9.79
2023-04-20T14:18:44.977Z,9.77
2023-04-20T14:21:13.010Z,9.69
2023-04-20T14:23:40.563Z,9.67
2023-04-20T14:26:08.496Z,9.68
2023-04-20T14:28:36.319Z,9.66
2023-04-20T14:31:04.103Z,9.58
2023-04-20T14:33:31.627Z,9.55
2023-04-20T14:35:59.244Z,9.59
2023-04-20T14:38:26.778Z,9.67
2023-04-20T14:40:54.196Z,9.65
2023-04-20T14:43:21.668Z,9.65
2023-04-20T14:45:50.725Z,9.65
2023-04-20T14:48:18.630Z,9.69
2023-04-20T14:50:46.550Z,9.63
2023-04-20T14:53:14.183Z,9.67
2023-04-20T14:55:41.906Z,9.59
2023-04-20T14:58:09.476Z,9.50
2023-04-20T15:00:37.347Z,9.48
2023-04-20T15:03:05.631Z,9.46
2023-04-20T15:05:34.029Z,9.43
2023-04-20T15:08:02.080Z,9.41
2023-04-20T15:10:30.437Z,9.40
2023-04-20T15:12:58.391Z,9.34
2023-04-20T15:15:37.670Z,9.30
2023-04-20T15:18:18.866Z,9.29
2023-04-20T15:20:46.934Z,9.30
2023-04-20T15:23:14.799Z,9.31
2023-04-20T15:25:42.537Z,9.29
2023-04-20T15:28:10.654Z,9.28
2023-04-20T15:30:38.586Z,9.24
2023-04-20T15:33:06.952Z,9.25
2023-04-20T15:35:34.939Z,9.12
2023-04-20T15:38:03.157Z,9.08
2023-04-20T15:40:30.819Z,9.05
2023-04-20T15:42:58.768Z,9.06
2023-04-20T15:45:26.636Z,9.03
2023-04-20T15:47:55.492Z,8.94
2023-04-20T15:50:23.282Z,8.94
2023-04-20T15:52:53.113Z,8.93
2023-04-20T15:55:20.730Z,8.92
2023-04-20T15:57:48.366Z,8.95
2023-04-20T16:00:16.536Z,8.98
2023-04-20T16:02:44.408Z,8.97
2023-04-20T16:05:12.252Z,8.94
2023-04-20T16:07:39.875Z,8.93
2023-04-20T16:10:08.433Z,8.87
2023-04-20T16:12:36.404Z,8.76
2023-04-20T16:15:05.691Z,8.79
2023-04-20T16:17:33.299Z,8.79
2023-04-20T16:20:00.997Z,8.80
2023-04-20T16:22:28.640Z,8.75
2023-04-20T16:24:56.541Z,8.71
2023-04-20T16:27:24.474Z,8.75
2023-04-20T16:29:52.511Z,8.72
2023-04-20T16:32:20.587Z,8.71
2023-04-20T16:34:48.840Z,8.71
2023-04-20T16:37:16.621Z,8.67
2023-04-20T16:39:44.792Z,8.60
2023-04-20T16:42:12.369Z,8.62
2023-04-20T16:44:41.872Z,8.49
2023-04-20T16:47:09.910Z,8.49
2023-04-20T16:49:37.626Z,8.51
2023-04-20T16:52:05.465Z,8.53
2023-04-20T16:54:33.326Z,8.54
2023-04-20T16:57:01.113Z,8.52
2023-04-20T16:59:28.946Z,8.49
2023-04-20T17:01:56.604Z,8.52
2023-04-20T17:04:24.787Z,8.49
2023-04-20T17:06:52.728Z,8.45
2023-04-20T17:09:22.185Z,8.46
2023-04-20T17:11:49.957Z,8.42
2023-04-20T17:14:17.909Z,8.43
2023-04-20T17:16:46.690Z,8.40
2023-04-20T17:19:15.629Z,8.43
2023-04-20T17:21:45.123Z,8.42
2023-04-20T17:24:16.421Z,8.46
2023-04-20T17:26:46.280Z,8.45
2023-04-20T17:29:14.149Z,8.47
2023-04-20T17:31:42.176Z,8.47
2023-04-20T17:34:10.348Z,8.47
2023-04-20T17:36:38.347Z,8.42
2023-04-20T17:39:06.747Z,8.45
2023-04-20T17:41:35.492Z,8.38
2023-04-20T17:44:03.503Z,8.37
2023-04-20T17:46:31.621Z,8.42
2023-04-20T17:48:59.527Z,8.41
2023-04-20T17:51:27.202Z,8.43
2023-04-20T17:53:54.933Z,8.38
2023-04-20T17:56:22.772Z,8.34
2023-04-20T17:58:50.619Z,8.33
2023-04-20T18:01:18.531Z,8.32
2023-04-20T18:03:47.855Z,8.30
2023-04-20T18:06:16.306Z,8.28
2023-04-20T18:08:44.402Z,8.24
2023-04-20T18:11:13.397Z,8.23
2023-04-20T18:13:40.952Z,8.21
2023-04-20T18:16:08.969Z,8.24
2023-04-20T18:18:37.145Z,8.15
2023-04-20T18:21:05.160Z,8.10
2023-04-20T18:23:33.078Z,8.05
2023-04-20T18:26:00.703Z,8.00
2023-04-20T18:28:29.097Z,8.04
2023-04-20T18:30:59.005Z,7.97
2023-04-20T18:33:27.111Z,7.94
2023-04-20T18:35:54.843Z,8.00
2023-04-20T18:38:22.594Z,7.95
2023-04-20T18:40:50.971Z,7.91
2023-04-20T18:43:18.729Z,7.93
2023-04-20T18:45:46.996Z,7.95
2023-04-20T18:48:15.391Z,7.90
2023-04-20T18:50:44.007Z,7.92
2023-04-20T18:53:12.806Z,7.93
2023-04-20T18:55:40.455Z,7.84
2023-04-20T18:58:08.139Z,7.89
2023-04-20T19:00:36.146Z,7.85
2023-04-20T19:03:05.475Z,7.77
2023-04-20T19:05:33.492Z,7.86
2023-04-20T19:08:01.564Z,7.79
2023-04-20T19:10:29.207Z,7.81
2023-04-20T19:12:57.048Z,7.83
2023-04-20T19:15:27.954Z,7.91
2023-04-20T19:17:56.177Z,7.86
2023-04-20T19:20:24.949Z,7.85
2023-04-20T19:22:52.936Z,7.81
2023-04-20T19:25:21.091Z,7.74
2023-04-20T19:27:48.825Z,7.79
2023-04-20T19:30:16.772Z,7.81
2023-04-20T19:32:44.527Z,7.76
2023-04-20T19:35:12.384Z,7.77
2023-04-20T19:37:41.255Z,7.76
2023-04-20T19:40:09.519Z,7.75
2023-04-20T19:42:37.908Z,7.72
2023-04-20T19:45:06.714Z,7.77
2023-04-20T19:47:35.509Z,7.80
2023-04-20T19:50:04.217Z,7.76
2023-04-20T19:52:33.880Z,7.67
2023-04-20T19:55:05.589Z,7.69
2023-04-20T19:57:33.609Z,7.64
2023-04-20T20:00:01.527Z,7.65
2023-04-20T20:02:29.261Z,7.62
2023-04-20T20:04:57.045Z,7.57
2023-04-20T20:07:26.088Z,7.60
2023-04-20T20:09:54.253Z,7.49
2023-04-20T20:12:21.928Z,7.48
2023-04-20T20:14:49.591Z,7.53
2023-04-20T20:17:19.142Z,7.50
2023-04-20T20:19:47.030Z,7.43
2023-04-20T20:22:14.807Z,7.43
2023-04-20T20:24:44.612Z,7.41
2023-04-20T20:27:12.509Z,7.44
2023-04-20T20:29:41.061Z,7.40
2023-04-20T20:32:08.865Z,7.33
2023-04-20T20:34:36.558Z,7.35
2023-04-20T20:37:04.632Z,7.30
2023-04-20T20:39:32.528Z,7.26
2023-04-20T20:42:01.625Z,7.28
2023-04-20T20:44:32.680Z,7.20
2023-04-20T20:47:00.676Z,7.22
2023-04-20T20:49:28.606Z,7.18
2023-04-20T20:51:56.668Z,7.18
2023-04-20T20:54:25.172Z,7.15
2023-04-20T20:56:52.847Z,7.22
2023-04-20T20:59:21.492Z,7.06
2023-04-20T21:01:49.470Z,7.14
2023-04-20T21:04:17.251Z,7.14
2023-04-20T21:06:45.544Z,7.10
2023-04-20T21:09:15.021Z,7.09
2023-04-20T21:11:43.116Z,7.07
2023-04-20T21:14:11.021Z,7.05
2023-04-20T21:16:39.426Z,7.08
2023-04-20T21:19:07.157Z,7.15
2023-04-20T21:21:35.311Z,7.12
2023-04-20T21:24:03.282Z,7.12
2023-04-20T21:26:35.252Z,7.14
2023-04-20T21:29:03.943Z,7.05
2023-04-20T21:31:33.293Z,7.08
2023-04-20T21:34:01.272Z,7.02
2023-04-20T21:36:29.098Z,7.10
2023-04-20T21:38:56.849Z,7.16
2023-04-20T21:41:26.323Z,7.15
2023-04-20T21:43:54.290Z,7.20
2023-04-20T21:46:22.427Z,7.18
2023-04-20T21:48:51.452Z,7.23
2023-04-20T21:51:19.754Z,7.29
2023-04-20T21:53:48.005Z,7.25
2023-04-20T21:56:16.058Z,7.22
2023-04-20T21:58:44.318Z,7.28
2023-04-20T22:01:12.523Z,7.25
2023-04-20T22:03:41.015Z,7.24
2023-04-20T22:06:08.882Z,7.25
2023-04-20T22:08:39.431Z,7.19
2023-04-20T22:11:07.730Z,7.22
2023-04-20T22:13:36.075Z,7.16
2023-04-20T22:16:04.441Z,7.18
2023-04-20T22:18:32.217Z,7.18
2023-04-20T22:21:00.105Z,7.21
2023-04-20T22:23:27.904Z,7.25
2023-04-20T22:25:55.505Z,7.23
2023-04-20T22:28:23.501Z,7.22
2023-04-20T22:30:51.214Z,7.21
2023-04-20T22:33:19.446Z,7.21
2023-04-20T22:35:50.097Z,7.20
2023-04-20T22:38:17.943Z,7.19
2023-04-20T22:40:45.727Z,7.18
2023-04-20T22:43:13.887Z,7.29
2023-04-20T22:45:41.698Z,7.23
2023-04-20T22:48:09.948Z,7.23
2023-04-20T22:50:37.941Z,7.22
2023-04-20T22:53:05.830Z,7.21
2023-04-20T22:55:33.521Z,7.28
2023-04-20T22:58:01.148Z,7.30
2023-04-20T23:00:28.973Z,7.21
2023-04-20T23:02:56.851Z,7.31
2023-04-20T23:05:24.960Z,7.25
2023-04-20T23:07:53.694Z,7.32
2023-04-20T23:10:22.018Z,7.35
2023-04-20T23:12:49.790Z,7.33
2023-04-20T23:15:17.415Z,7.24
2023-04-20T23:17:45.242Z,7.21
2023-04-20T23:20:13.244Z,7.27
2023-04-20T23:22:41.369Z,7.36
2023-04-20T23:25:10.539Z,7.36
2023-04-20T23:27:38.370Z,7.39
2023-04-20T23:30:07.197Z,7.45
2023-04-20T23:32:35.161Z,7.43
2023-04-20T23:35:02.939Z,7.39
2023-04-20T23:37:30.572Z,7.37
2023-04-20T23:39:58.104Z,7.40
2023-04-20T23:42:25.765Z,7.42
2023-04-20T23:44:53.546Z,7.44
2023-04-20T23:47:21.095Z,7.47
2023-04-20T23:49:48.446Z,7.48
2023-04-20T23:52:15.962Z,7.49
2023-04-20T23:54:44.311Z,7.54
2023-04-20T23:57:12.413Z,7.55
2023-04-20T23:59:41.142Z,7.61
